Time;durP1;ratioP1;P1;durP2;ratioP2;P2;SDS_P1;SDS_P2;PMS_P1;PMS_P2;Temp;Humidity;BMP_temperature;BMP_pressure;BME280_temperature;BME280_humidity;BME280_pressure;Samples;Min_cycle;Max_cycle;Signal;HPM_P1;HPM_P2
2022/01/09 00:01:29;;;;;;;5.00;4.13;;;6.00;99.90;;;;;;5005516;28;20096;-60
2022/01/09 00:03:55;;;;;;;4.90;4.30;;;6.00;99.90;;;;;;4988176;28;20042;-61
2022/01/09 00:06:21;;;;;;;4.70;4.20;;;5.90;99.90;;;;;;5007387;28;20042;-61
2022/01/09 00:08:46;;;;;;;6.97;3.97;;;6.00;99.90;;;;;;5003396;28;20460;-61
2022/01/09 00:11:13;;;;;;;5.40;3.92;;;6.00;99.90;;;;;;5002491;28;20037;-60
2022/01/09 00:13:39;;;;;;;5.72;4.45;;;5.90;99.90;;;;;;5010448;28;20034;-61
2022/01/09 00:16:05;;;;;;;6.68;4.68;;;6.00;99.90;;;;;;5008718;28;20054;-61
2022/01/09 00:18:30;;;;;;;6.82;4.50;;;6.00;99.90;;;;;;4983645;28;20133;-60
2022/01/09 00:20:56;;;;;;;7.13;4.30;;;6.00;99.90;;;;;;5005966;28;20120;-60
2022/01/09 00:23:22;;;;;;;9.05;4.80;;;6.00;99.90;;;;;;5006951;28;20518;-60
2022/01/09 00:25:47;;;;;;;9.98;3.72;;;6.10;99.90;;;;;;4998340;28;20838;-60
2022/01/09 00:28:13;;;;;;;9.10;3.78;;;6.10;99.90;;;;;;5005993;28;20089;-61
2022/01/09 00:30:38;;;;;;;10.75;4.53;;;6.20;99.90;;;;;;5030145;28;20045;-60
2022/01/09 00:33:06;;;;;;;12.02;3.90;;;6.20;99.90;;;;;;5024920;28;20451;-60
2022/01/09 00:35:32;;;;;;;9.35;3.75;;;6.20;99.90;;;;;;5013392;28;20038;-61
2022/01/09 00:37:58;;;;;;;14.48;4.03;;;6.30;99.90;;;;;;5022908;28;20052;-61
2022/01/09 00:40:23;;;;;;;8.45;3.40;;;6.30;99.90;;;;;;5024858;28;20042;-61
2022/01/09 00:42:49;;;;;;;19.40;4.18;;;6.30;99.90;;;;;;5023242;28;20033;-61
2022/01/09 00:45:15;;;;;;;12.77;3.83;;;6.30;99.90;;;;;;5030578;28;20037;-61
2022/01/09 00:47:41;;;;;;;16.27;3.65;;;6.30;99.90;;;;;;5011208;28;20045;-61
2022/01/09 00:50:08;;;;;;;14.85;3.85;;;6.30;99.90;;;;;;5023595;28;20042;-61
2022/01/09 00:52:34;;;;;;;14.38;3.58;;;6.30;99.90;;;;;;5023414;28;20061;-61
2022/01/09 00:54:59;;;;;;;17.00;3.85;;;6.30;99.90;;;;;;5019049;28;20041;-61
2022/01/09 00:57:25;;;;;;;18.20;4.07;;;6.30;99.90;;;;;;5024752;28;20049;-61
2022/01/09 00:59:51;;;;;;;21.92;3.67;;;6.30;99.90;;;;;;5022111;28;20136;-61
2022/01/09 01:02:17;;;;;;;19.55;3.30;;;6.40;99.90;;;;;;5020161;28;20084;-61
2022/01/09 01:04:43;;;;;;;16.48;3.97;;;6.40;99.90;;;;;;5017385;28;20441;-61
2022/01/09 01:07:08;;;;;;;23.52;5.82;;;6.40;99.90;;;;;;5020535;28;20041;-61
2022/01/09 01:09:34;;;;;;;24.85;4.40;;;6.30;99.90;;;;;;5023033;28;20038;-61
2022/01/09 01:12:00;;;;;;;31.90;4.65;;;6.40;99.90;;;;;;5024012;28;20681;-61
2022/01/09 01:14:27;;;;;;;34.28;4.32;;;6.40;99.90;;;;;;5029201;28;20065;-61
2022/01/09 01:16:54;;;;;;;20.15;4.50;;;6.40;99.90;;;;;;5022534;28;20033;-61
2022/01/09 01:19:20;;;;;;;24.85;4.28;;;6.30;99.90;;;;;;5025042;28;20053;-61
2022/01/09 01:21:45;;;;;;;34.28;5.03;;;6.30;99.90;;;;;;5029340;28;20107;-61
2022/01/09 01:24:11;;;;;;;29.35;5.70;;;6.40;99.90;;;;;;5023565;28;20044;-61
2022/01/09 01:26:37;;;;;;;25.25;5.22;;;6.30;99.90;;;;;;5022768;28;20049;-61
2022/01/09 01:29:02;;;;;;;31.65;5.65;;;6.30;99.90;;;;;;5025383;28;20064;-61
2022/01/09 01:31:28;;;;;;;29.45;6.20;;;6.40;99.90;;;;;;5012220;28;20046;-61
2022/01/09 01:33:54;;;;;;;34.60;5.40;;;6.30;99.90;;;;;;5019413;28;20045;-61
2022/01/09 01:36:20;;;;;;;29.23;5.93;;;6.30;99.90;;;;;;5020562;28;20096;-61
2022/01/09 01:38:45;;;;;;;31.13;5.75;;;6.30;99.90;;;;;;5010908;28;20038;-61
2022/01/09 01:41:11;;;;;;;44.53;8.45;;;6.40;99.90;;;;;;5004539;28;20042;-61
2022/01/09 01:43:37;;;;;;;40.83;6.47;;;6.40;99.90;;;;;;5023768;28;20121;-61
2022/01/09 01:46:02;;;;;;;28.73;6.10;;;6.40;99.90;;;;;;5024379;28;20053;-60
2022/01/09 01:48:29;;;;;;;37.95;6.90;;;6.40;99.90;;;;;;5027053;28;20405;-61
2022/01/09 01:50:55;;;;;;;50.15;8.85;;;6.40;99.90;;;;;;5015259;28;20382;-61
2022/01/09 01:53:22;;;;;;;45.53;6.32;;;6.40;99.90;;;;;;5016645;28;20049;-61
2022/01/09 01:55:53;;;;;;;33.50;6.20;;;6.40;99.90;;;;;;5016696;28;20580;-61
2022/01/09 01:58:20;;;;;;;46.53;8.43;;;6.40;99.90;;;;;;5018390;28;20064;-61
2022/01/09 02:00:46;;;;;;;46.88;8.48;;;6.40;99.90;;;;;;5019864;28;20573;-61
2022/01/09 02:03:11;;;;;;;50.50;8.63;;;6.40;99.90;;;;;;5022169;28;20128;-62
2022/01/09 02:05:40;;;;;;;51.85;9.07;;;6.50;99.90;;;;;;5016477;28;20050;-61
2022/01/09 02:08:07;;;;;;;55.20;9.50;;;6.40;99.90;;;;;;5022896;28;20076;-61
2022/01/09 02:10:33;;;;;;;59.75;10.13;;;6.50;99.90;;;;;;5021774;28;20046;-61
2022/01/09 02:12:59;;;;;;;66.18;11.02;;;6.50;99.90;;;;;;5018628;28;20050;-61
2022/01/09 02:15:37;;;;;;;59.17;10.18;;;6.50;99.90;;;;;;5022128;28;20049;-62
2022/01/09 02:18:11;;;;;;;58.60;9.38;;;6.50;99.90;;;;;;5021899;28;20048;-61
2022/01/09 02:20:38;;;;;;;59.83;10.77;;;6.60;99.90;;;;;;5023569;28;20133;-62
2022/01/09 02:23:06;;;;;;;75.72;11.82;;;6.50;99.90;;;;;;5016588;28;20572;-61
2022/01/09 02:25:33;;;;;;;56.50;9.35;;;6.50;99.90;;;;;;5020439;28;20512;-61
2022/01/09 02:27:59;;;;;;;56.17;8.90;;;6.60;99.90;;;;;;5022376;28;20171;-61
2022/01/09 02:30:25;;;;;;;52.70;9.70;;;6.60;99.90;;;;;;5018905;28;20041;-61
2022/01/09 02:32:51;;;;;;;73.22;10.13;;;6.50;99.90;;;;;;5019338;28;20059;-61
2022/01/09 02:35:17;;;;;;;59.75;9.23;;;6.60;99.90;;;;;;5013247;28;20108;-61
2022/01/09 02:37:42;;;;;;;57.08;8.93;;;6.60;99.90;;;;;;5019488;28;20057;-61
2022/01/09 02:40:08;;;;;;;61.05;10.25;;;6.60;99.90;;;;;;5009658;28;20045;-61
2022/01/09 02:42:34;;;;;;;61.42;9.48;;;6.60;99.90;;;;;;5020020;28;20040;-61
2022/01/09 02:45:00;;;;;;;53.58;8.65;;;6.60;99.90;;;;;;5014830;28;20037;-62
2022/01/09 02:47:30;;;;;;;49.45;9.18;;;6.60;99.90;;;;;;5026480;28;20047;-61
2022/01/09 02:49:57;;;;;;;51.50;9.52;;;6.60;99.90;;;;;;5025404;28;20143;-61
2022/01/09 02:52:30;;;;;;;53.72;9.38;;;6.60;99.90;;;;;;5012643;28;20053;-61
2022/01/09 02:55:12;;;;;;;50.92;8.55;;;6.60;99.90;;;;;;5018466;28;20042;-61
2022/01/09 02:57:59;;;;;;;49.85;7.78;;;6.50;99.90;;;;;;5020336;28;20049;-62
2022/01/09 03:00:33;;;;;;;54.53;8.95;;;6.60;99.90;;;;;;5017605;28;20045;-62
2022/01/09 03:02:59;;;;;;;46.75;9.68;;;6.60;99.90;;;;;;5010151;28;20050;-62
2022/01/09 03:05:26;;;;;;;47.10;7.40;;;6.50;99.90;;;;;;5021580;28;20038;-62
2022/01/09 03:07:52;;;;;;;45.25;9.23;;;6.60;99.90;;;;;;5023472;28;20041;-62
2022/01/09 03:10:20;;;;;;;46.95;10.05;;;6.50;99.90;;;;;;5010290;28;20069;-62
2022/01/09 03:12:47;;;;;;;59.33;8.75;;;6.60;99.90;;;;;;5019169;28;20133;-62
2022/01/09 03:15:13;;;;;;;40.10;7.38;;;6.60;99.90;;;;;;5014425;28;20034;-62
2022/01/09 03:17:39;;;;;;;48.85;7.82;;;6.60;99.90;;;;;;5018547;28;20077;-62
2022/01/09 03:20:09;;;;;;;53.92;7.55;;;6.60;99.90;;;;;;5015324;28;20179;-61
2022/01/09 03:22:35;;;;;;;40.08;8.73;;;6.60;99.90;;;;;;5019880;28;20048;-61
2022/01/09 03:25:00;;;;;;;59.85;7.82;;;6.60;99.90;;;;;;5022010;28;20041;-62
2022/01/09 03:27:26;;;;;;;37.63;6.90;;;6.60;99.90;;;;;;5015951;28;20783;-63
2022/01/09 03:29:51;;;;;;;45.05;7.05;;;6.60;99.90;;;;;;5025269;28;20133;-61
2022/01/09 03:32:17;;;;;;;49.05;8.32;;;6.50;99.90;;;;;;5020237;28;20065;-62
2022/01/09 03:34:42;;;;;;;43.38;7.85;;;6.60;99.90;;;;;;5024788;28;20517;-62
2022/01/09 03:37:08;;;;;;;44.22;7.28;;;6.60;99.90;;;;;;5019818;28;20140;-62
2022/01/09 03:39:34;;;;;;;40.17;7.30;;;6.60;99.90;;;;;;5012527;28;20068;-61
2022/01/09 03:42:00;;;;;;;46.95;6.50;;;6.50;99.90;;;;;;5014020;28;20083;-62
2022/01/09 03:44:28;;;;;;;40.10;7.75;;;6.50;99.90;;;;;;5025275;28;20047;-62
2022/01/09 03:46:55;;;;;;;31.50;6.93;;;6.50;99.90;;;;;;5023612;28;20080;-62
2022/01/09 03:49:21;;;;;;;34.35;5.78;;;6.50;99.90;;;;;;5021102;28;20050;-61
2022/01/09 03:51:50;;;;;;;29.45;6.40;;;6.50;99.90;;;;;;5023401;28;20128;-61
2022/01/09 03:54:17;;;;;;;34.80;5.85;;;6.50;99.90;;;;;;5005829;28;20584;-62
2022/01/09 03:56:43;;;;;;;36.10;6.57;;;6.40;99.90;;;;;;5025000;28;20041;-63
2022/01/09 03:59:09;;;;;;;36.08;6.45;;;6.40;99.90;;;;;;5016068;28;20034;-61
2022/01/09 04:01:34;;;;;;;38.30;6.32;;;6.40;99.90;;;;;;5019675;28;20124;-62
2022/01/09 04:04:00;;;;;;;43.60;7.18;;;6.50;99.90;;;;;;5015582;28;20041;-62
2022/01/09 04:06:25;;;;;;;35.00;5.45;;;6.50;99.90;;;;;;5019157;28;20054;-61
2022/01/09 04:08:55;;;;;;;30.67;5.47;;;6.40;99.90;;;;;;5010960;28;20720;-62
2022/01/09 04:11:26;;;;;;;37.22;5.68;;;6.40;99.90;;;;;;5023188;28;20045;-61
2022/01/09 04:13:52;;;;;;;45.53;6.18;;;6.40;99.90;;;;;;5014649;28;20042;-62
2022/01/09 04:16:18;;;;;;;42.13;6.65;;;6.40;99.90;;;;;;5017031;28;20084;-62
2022/01/09 04:18:43;;;;;;;37.13;6.75;;;6.40;99.90;;;;;;5014340;28;20073;-61
2022/01/09 04:21:09;;;;;;;30.30;5.53;;;6.30;99.90;;;;;;5018365;28;20397;-62
2022/01/09 04:23:35;;;;;;;32.25;6.10;;;6.40;99.90;;;;;;5012107;28;20084;-61
2022/01/09 04:26:00;;;;;;;31.00;5.68;;;6.40;99.90;;;;;;5024354;28;20088;-61
2022/01/09 04:28:26;;;;;;;28.25;5.95;;;6.30;99.90;;;;;;5020500;28;20049;-61
2022/01/09 04:30:51;;;;;;;24.42;5.20;;;6.30;99.90;;;;;;5023655;28;20378;-61
2022/01/09 04:33:17;;;;;;;37.47;5.53;;;6.30;99.90;;;;;;5021804;28;21863;-61
2022/01/09 04:35:43;;;;;;;27.05;5.78;;;6.40;99.90;;;;;;5014567;28;20052;-62
2022/01/09 04:38:09;;;;;;;22.48;3.83;;;6.30;99.90;;;;;;5024669;28;20571;-61
2022/01/09 04:40:35;;;;;;;24.67;4.22;;;6.30;99.90;;;;;;5014064;28;20433;-61
2022/01/09 04:43:03;;;;;;;28.10;3.92;;;6.30;99.90;;;;;;5022098;28;20389;-61
2022/01/09 04:45:29;;;;;;;21.38;3.67;;;6.30;99.90;;;;;;5027049;28;20084;-61
2022/01/09 04:48:00;;;;;;;23.05;3.92;;;6.30;99.90;;;;;;5027030;28;20052;-61
2022/01/09 04:50:29;;;;;;;19.58;3.45;;;6.20;99.90;;;;;;5029352;28;20041;-61
2022/01/09 04:53:04;;;;;;;19.10;4.53;;;6.20;99.90;;;;;;5023272;28;20547;-61
2022/01/09 04:55:32;;;;;;;30.38;5.38;;;6.20;99.90;;;;;;5022057;28;20069;-61
2022/01/09 04:57:58;;;;;;;30.90;5.45;;;6.30;99.90;;;;;;5029081;28;20072;-61
2022/01/09 05:00:24;;;;;;;32.45;5.13;;;6.30;99.90;;;;;;5027314;28;20432;-60
2022/01/09 05:02:49;;;;;;;28.80;5.28;;;6.30;99.90;;;;;;5026337;28;20540;-61
2022/01/09 05:05:16;;;;;;;32.10;5.60;;;6.20;99.90;;;;;;5017106;28;20107;-61
2022/01/09 05:07:42;;;;;;;32.15;5.43;;;6.30;99.90;;;;;;5017990;28;20057;-61
2022/01/09 05:10:09;;;;;;;36.78;5.32;;;6.30;99.90;;;;;;5027979;28;20042;-61
2022/01/09 05:12:35;;;;;;;34.28;5.70;;;6.30;99.90;;;;;;5028972;28;20065;-61
2022/01/09 05:15:02;;;;;;;28.58;4.47;;;6.30;99.90;;;;;;5020717;28;20120;-61
2022/01/09 05:17:27;;;;;;;36.67;6.47;;;6.30;99.90;;;;;;5015216;28;20050;-61
2022/01/09 05:19:57;;;;;;;29.88;4.78;;;6.30;99.90;;;;;;5027726;28;20087;-61
2022/01/09 05:22:24;;;;;;;30.27;5.18;;;6.30;99.90;;;;;;5002300;28;20520;-61
2022/01/09 05:24:51;;;;;;;23.38;4.60;;;6.20;99.90;;;;;;5003753;28;20043;-61
2022/01/09 05:27:17;;;;;;;27.17;5.10;;;6.30;99.90;;;;;;5023436;28;20054;-61
2022/01/09 05:29:43;;;;;;;26.63;5.15;;;6.30;99.90;;;;;;5019156;28;20076;-61
2022/01/09 05:32:09;;;;;;;22.70;5.07;;;6.20;99.90;;;;;;5026525;28;20482;-61
2022/01/09 05:34:35;;;;;;;20.90;5.38;;;6.20;99.90;;;;;;5014135;28;20107;-61
2022/01/09 05:37:01;;;;;;;29.88;5.07;;;6.20;99.90;;;;;;5024004;28;20152;-61
2022/01/09 05:39:26;;;;;;;29.42;4.90;;;6.20;99.90;;;;;;5023909;28;20041;-61
2022/01/09 05:41:52;;;;;;;22.10;4.60;;;6.20;99.90;;;;;;5014485;28;20076;-61
2022/01/09 05:44:19;;;;;;;22.60;5.38;;;6.30;99.90;;;;;;5021783;28;20056;-61
2022/01/09 05:46:44;;;;;;;20.48;3.75;;;6.30;99.90;;;;;;5025923;28;20441;-61
2022/01/09 05:49:10;;;;;;;21.08;4.15;;;6.30;99.90;;;;;;5010794;28;20079;-61
2022/01/09 05:51:36;;;;;;;27.98;3.80;;;6.20;99.90;;;;;;5019565;28;20041;-61
2022/01/09 05:54:01;;;;;;;21.10;4.28;;;6.20;99.90;;;;;;5015650;28;20046;-61
2022/01/09 05:56:27;;;;;;;29.50;4.70;;;6.20;99.90;;;;;;5011889;28;20490;-61
2022/01/09 05:58:52;;;;;;;37.08;5.30;;;6.20;99.90;;;;;;5002874;28;20053;-61
2022/01/09 06:01:18;;;;;;;27.13;3.72;;;6.20;99.90;;;;;;5022445;28;20042;-61
2022/01/09 06:03:43;;;;;;;23.35;4.00;;;6.20;99.90;;;;;;5026009;28;20124;-61
2022/01/09 06:06:09;;;;;;;23.15;3.40;;;6.20;99.90;;;;;;5027927;28;20124;-61
2022/01/09 06:08:34;;;;;;;23.27;4.63;;;6.20;99.90;;;;;;5017260;28;20074;-61
2022/01/09 06:11:00;;;;;;;19.80;4.32;;;6.20;99.90;;;;;;5023152;28;20045;-61
2022/01/09 06:13:26;;;;;;;16.00;3.63;;;6.20;99.90;;;;;;5021419;28;20049;-61
2022/01/09 06:15:51;;;;;;;22.60;4.13;;;6.20;99.90;;;;;;5024814;28;20484;-61
2022/01/09 06:18:21;;;;;;;33.30;4.95;;;6.20;99.90;;;;;;5018533;28;20053;-61
2022/01/09 06:20:48;;;;;;;27.52;4.07;;;6.10;99.90;;;;;;5020691;28;20030;-61
2022/01/09 06:23:15;;;;;;;25.80;4.60;;;6.10;99.90;;;;;;5017168;28;20045;-61
2022/01/09 06:25:41;;;;;;;33.65;4.43;;;6.10;99.90;;;;;;5018303;28;20041;-61
2022/01/09 06:28:07;;;;;;;34.17;5.88;;;6.10;99.90;;;;;;5025444;28;20095;-62
2022/01/09 06:30:32;;;;;;;32.30;4.55;;;6.10;99.90;;;;;;5004664;28;20083;-61
2022/01/09 06:32:58;;;;;;;18.38;3.53;;;6.00;99.90;;;;;;5021732;28;20448;-61
2022/01/09 06:35:23;;;;;;;16.13;3.10;;;6.00;99.90;;;;;;5024516;28;20038;-61
2022/01/09 06:37:49;;;;;;;28.00;4.45;;;6.00;99.90;;;;;;5015095;28;20068;-61
2022/01/09 06:40:16;;;;;;;27.30;4.45;;;6.00;99.90;;;;;;5012495;28;20052;-61
2022/01/09 06:42:41;;;;;;;19.73;3.65;;;6.00;99.90;;;;;;5015325;28;20034;-61
2022/01/09 06:45:07;;;;;;;19.77;4.22;;;6.00;99.90;;;;;;5022741;28;20046;-61
2022/01/09 06:47:33;;;;;;;14.90;3.70;;;6.00;99.90;;;;;;5020675;28;20076;-61
2022/01/09 06:49:59;;;;;;;10.80;2.33;;;6.00;99.90;;;;;;5025828;28;20049;-61
2022/01/09 06:52:25;;;;;;;13.23;2.45;;;6.00;99.90;;;;;;5021209;28;20100;-61
2022/01/09 06:54:50;;;;;;;12.57;2.95;;;6.00;99.90;;;;;;5019306;28;20052;-61
2022/01/09 06:57:16;;;;;;;21.77;2.60;;;6.00;99.90;;;;;;5025406;28;20053;-61
2022/01/09 06:59:41;;;;;;;11.38;2.00;;;6.00;99.90;;;;;;5017983;28;20052;-61
2022/01/09 07:02:07;;;;;;;18.08;1.98;;;6.00;99.90;;;;;;5025024;28;20045;-61
2022/01/09 07:04:32;;;;;;;15.07;3.15;;;5.90;99.90;;;;;;5026819;28;20499;-61
2022/01/09 07:06:58;;;;;;;12.57;2.58;;;5.90;99.90;;;;;;5025826;28;20461;-61
2022/01/09 07:09:23;;;;;;;8.60;1.73;;;5.90;99.90;;;;;;5016164;28;20046;-61
2022/01/09 07:11:49;;;;;;;13.57;2.33;;;5.80;99.90;;;;;;5026291;28;20037;-62
2022/01/09 07:14:15;;;;;;;8.48;1.58;;;5.80;99.90;;;;;;5003407;28;20552;-61
2022/01/09 07:16:41;;;;;;;9.45;1.75;;;5.80;99.90;;;;;;5020506;28;20045;-61
2022/01/09 07:19:06;;;;;;;11.90;2.10;;;5.80;99.90;;;;;;5024966;28;20041;-61
2022/01/09 07:21:32;;;;;;;14.82;2.88;;;5.90;99.90;;;;;;5015950;28;20459;-61
2022/01/09 07:23:57;;;;;;;12.02;2.33;;;5.80;99.90;;;;;;5023193;28;20041;-61
2022/01/09 07:26:23;;;;;;;13.82;2.45;;;5.90;99.90;;;;;;5021543;28;20076;-61
2022/01/09 07:28:48;;;;;;;20.90;2.90;;;5.80;99.90;;;;;;5023890;28;20049;-61
2022/01/09 07:31:14;;;;;;;16.35;2.38;;;5.90;99.90;;;;;;5026357;28;20472;-62
2022/01/09 07:33:40;;;;;;;11.43;2.83;;;5.90;99.90;;;;;;5015596;28;20052;-61
2022/01/09 07:36:05;;;;;;;19.30;3.38;;;5.90;99.90;;;;;;5017610;28;20124;-62
2022/01/09 07:38:31;;;;;;;12.52;3.53;;;6.00;99.90;;;;;;5019732;28;20053;-62
2022/01/09 07:40:57;;;;;;;20.98;4.22;;;6.00;99.90;;;;;;5015296;28;20034;-62
2022/01/09 07:43:23;;;;;;;14.05;3.40;;;6.00;99.90;;;;;;5022183;28;20042;-62
2022/01/09 07:45:48;;;;;;;18.90;3.13;;;6.00;99.90;;;;;;5018329;28;20115;-62
2022/01/09 07:48:14;;;;;;;21.20;3.38;;;6.00;99.90;;;;;;5020690;28;20164;-61
2022/01/09 07:50:40;;;;;;;23.83;2.97;;;6.00;99.90;;;;;;5000373;28;20134;-62
2022/01/09 07:53:05;;;;;;;15.38;3.17;;;6.00;99.90;;;;;;5019633;28;20038;-62
2022/01/09 07:55:31;;;;;;;17.58;2.65;;;6.00;99.90;;;;;;5021268;28;20053;-62
2022/01/09 07:57:57;;;;;;;21.45;4.03;;;6.00;99.90;;;;;;5010864;28;20038;-62
2022/01/09 08:00:22;;;;;;;29.00;3.97;;;6.00;99.90;;;;;;5001901;28;20107;-62
2022/01/09 08:02:49;;;;;;;21.85;3.60;;;6.00;99.90;;;;;;5008567;28;20071;-62
2022/01/09 08:05:15;;;;;;;13.93;4.93;;;6.00;99.90;;;;;;5018310;28;20068;-62
2022/01/09 08:07:42;;;;;;;23.73;4.85;;;6.00;99.90;;;;;;5024147;28;20061;-62
2022/01/09 08:10:09;;;;;;;20.20;3.33;;;6.00;99.90;;;;;;5006268;28;20041;-62
2022/01/09 08:12:34;;;;;;;25.83;3.85;;;6.10;99.90;;;;;;5018280;28;20717;-62
2022/01/09 08:15:00;;;;;;;20.60;4.35;;;6.10;99.90;;;;;;5019610;28;20114;-62
2022/01/09 08:17:26;;;;;;;21.23;3.42;;;6.10;99.90;;;;;;5009548;28;20033;-62
2022/01/09 08:19:52;;;;;;;27.25;5.07;;;6.10;99.90;;;;;;5021129;28;20087;-62
2022/01/09 08:22:18;;;;;;;22.63;3.38;;;6.10;99.90;;;;;;5021630;28;20393;-61
2022/01/09 08:24:43;;;;;;;23.27;5.22;;;6.10;99.90;;;;;;5022962;28;20041;-61
2022/01/09 08:27:09;;;;;;;17.42;3.45;;;6.10;99.90;;;;;;5025555;28;20123;-62
2022/01/09 08:29:37;;;;;;;15.73;3.05;;;6.10;99.90;;;;;;5023632;28;20187;-62
2022/01/09 08:32:03;;;;;;;6.75;1.88;;;6.10;99.90;;;;;;5019662;28;20061;-62
2022/01/09 08:34:29;;;;;;;8.15;1.88;;;6.00;99.90;;;;;;5010090;28;20033;-62
2022/01/09 08:36:54;;;;;;;6.22;1.63;;;6.00;99.90;;;;;;5018934;28;20041;-62
2022/01/09 08:39:20;;;;;;;9.25;1.90;;;6.00;99.90;;;;;;5027396;28;20104;-62
2022/01/09 08:41:45;;;;;;;10.75;1.95;;;6.00;99.90;;;;;;5022066;28;20132;-62
2022/01/09 08:44:11;;;;;;;9.13;2.45;;;6.00;99.90;;;;;;5024339;28;20485;-62
2022/01/09 08:46:38;;;;;;;23.00;3.10;;;6.00;99.90;;;;;;5022458;28;20130;-61
2022/01/09 08:49:04;;;;;;;12.63;2.75;;;6.00;99.90;;;;;;5019783;28;20042;-62
2022/01/09 08:51:30;;;;;;;11.30;2.15;;;5.90;99.90;;;;;;5016892;28;20202;-62
2022/01/09 08:53:57;;;;;;;16.65;3.33;;;5.90;99.90;;;;;;5005239;28;20782;-61
2022/01/09 08:56:24;;;;;;;28.00;3.28;;;5.90;99.90;;;;;;5011603;28;20074;-62
2022/01/09 08:58:51;;;;;;;20.13;3.15;;;5.90;99.90;;;;;;5018299;28;20740;-61
2022/01/09 09:01:17;;;;;;;12.57;2.50;;;5.90;99.90;;;;;;5022618;28;20048;-62
2022/01/09 09:03:43;;;;;;;12.80;3.20;;;5.80;99.90;;;;;;5017211;28;20042;-62
2022/01/09 09:06:14;;;;;;;14.63;1.92;;;5.80;99.90;;;;;;5006516;28;20504;-61
2022/01/09 09:08:42;;;;;;;16.00;2.35;;;5.90;99.90;;;;;;5018361;28;20056;-61
2022/01/09 09:11:09;;;;;;;11.73;2.00;;;5.90;99.90;;;;;;5019076;28;20037;-61
2022/01/09 09:13:35;;;;;;;15.93;3.20;;;5.90;99.90;;;;;;5020668;28;20049;-61
2022/01/09 09:16:01;;;;;;;12.40;3.30;;;5.90;99.90;;;;;;5005951;28;20056;-62
2022/01/09 09:18:26;;;;;;;12.98;3.47;;;5.90;99.90;;;;;;5015633;28;20046;-62
2022/01/09 09:20:52;;;;;;;12.15;1.73;;;6.00;99.90;;;;;;5024395;28;20052;-61
2022/01/09 09:23:18;;;;;;;13.45;2.53;;;6.00;99.90;;;;;;5027509;28;20041;-62
2022/01/09 09:25:43;;;;;;;10.77;2.33;;;5.90;99.90;;;;;;5017345;28;20076;-62
2022/01/09 09:28:09;;;;;;;9.48;2.30;;;5.90;99.90;;;;;;5011016;28;20041;-62
2022/01/09 09:30:35;;;;;;;8.68;1.90;;;5.90;99.90;;;;;;5025214;28;20065;-62
2022/01/09 09:33:02;;;;;;;17.08;2.42;;;6.00;99.90;;;;;;5025142;28;20034;-62
2022/01/09 09:35:28;;;;;;;7.30;1.98;;;6.00;99.90;;;;;;5023442;28;20057;-62
2022/01/09 09:37:53;;;;;;;13.20;2.70;;;6.00;99.90;;;;;;5019535;28;20065;-62
2022/01/09 09:40:19;;;;;;;19.13;3.80;;;6.00;99.90;;;;;;5018671;28;20428;-62
2022/01/09 09:42:45;;;;;;;13.57;2.67;;;6.10;99.90;;;;;;5017192;28;20041;-61
2022/01/09 09:45:11;;;;;;;15.23;2.85;;;6.10;99.90;;;;;;5016732;28;20041;-62
2022/01/09 09:47:39;;;;;;;14.07;3.20;;;6.10;99.90;;;;;;5007446;28;20167;-61
2022/01/09 09:50:07;;;;;;;19.73;3.75;;;6.20;99.90;;;;;;5027084;28;20127;-62
2022/01/09 09:52:33;;;;;;;18.17;2.90;;;6.20;99.90;;;;;;5020087;28;20174;-62
2022/01/09 09:55:00;;;;;;;19.92;3.00;;;6.30;99.90;;;;;;5015041;28;20038;-61
2022/01/09 09:57:26;;;;;;;10.80;2.72;;;6.30;99.90;;;;;;5016168;28;20046;-62
2022/01/09 10:00:01;;;;;;;16.60;2.67;;;6.30;99.90;;;;;;5026650;28;20037;-62
2022/01/09 10:02:49;;;;;;;17.25;2.50;;;6.30;99.90;;;;;;5020870;28;20053;-61
2022/01/09 10:05:18;;;;;;;18.45;2.40;;;6.30;99.90;;;;;;5018984;28;20060;-62
2022/01/09 10:07:43;;;;;;;23.33;2.97;;;6.30;99.90;;;;;;5014974;28;20450;-62
2022/01/09 10:10:18;;;;;;;12.27;3.33;;;6.30;99.90;;;;;;5012982;28;20050;-62
2022/01/09 10:12:46;;;;;;;12.55;3.33;;;6.40;99.90;;;;;;5015097;28;20099;-63
2022/01/09 10:15:21;;;;;;;16.40;3.65;;;6.40;99.90;;;;;;5022710;28;20029;-62
2022/01/09 10:17:50;;;;;;;14.90;2.25;;;6.50;99.90;;;;;;5017973;28;20041;-62
2022/01/09 10:20:18;;;;;;;24.33;3.20;;;6.60;99.90;;;;;;5009874;28;20037;-62
2022/01/09 10:22:48;;;;;;;12.27;2.78;;;6.60;99.90;;;;;;5018829;28;20055;-62
2022/01/09 10:25:22;;;;;;;24.63;4.50;;;6.60;99.90;;;;;;5016642;28;20054;-62
2022/01/09 10:27:51;;;;;;;11.23;2.38;;;6.60;99.90;;;;;;5020532;28;20512;-62
2022/01/09 10:30:21;;;;;;;16.50;2.78;;;6.70;99.90;;;;;;5021423;28;20077;-62
2022/01/09 10:32:46;;;;;;;13.20;2.35;;;6.80;99.90;;;;;;5017415;28;20417;-62
2022/01/09 10:35:17;;;;;;;12.73;3.40;;;6.70;99.90;;;;;;5026004;28;20037;-62
2022/01/09 10:37:48;;;;;;;13.02;3.83;;;6.80;99.90;;;;;;5027166;28;20053;-62
2022/01/09 10:40:21;;;;;;;17.45;3.25;;;6.90;99.90;;;;;;5024041;28;20053;-62
2022/01/09 10:43:04;;;;;;;8.88;2.10;;;6.90;99.90;;;;;;5022515;28;20141;-62
2022/01/09 10:45:31;;;;;;;15.30;3.53;;;7.00;99.90;;;;;;5007496;28;20125;-62
2022/01/09 10:48:12;;;;;;;24.83;3.75;;;7.00;99.90;;;;;;5027374;28;20107;-62
2022/01/09 10:50:41;;;;;;;14.57;2.78;;;7.10;99.90;;;;;;5015764;28;20084;-63
2022/01/09 10:53:15;;;;;;;16.70;3.00;;;7.20;99.90;;;;;;5015812;28;20053;-62
2022/01/09 10:55:42;;;;;;;19.42;2.92;;;7.30;99.90;;;;;;5015052;28;20057;-62
2022/01/09 10:58:21;;;;;;;18.65;3.25;;;7.30;99.90;;;;;;5013886;28;20054;-63
2022/01/09 11:00:47;;;;;;;12.93;2.47;;;7.50;99.90;;;;;;5015813;28;20379;-62
2022/01/09 11:03:14;;;;;;;11.13;2.17;;;7.50;99.90;;;;;;5020094;28;20429;-63
2022/01/09 11:05:40;;;;;;;14.63;2.65;;;7.50;99.90;;;;;;5025308;28;20044;-62
2022/01/09 11:08:06;;;;;;;17.38;3.45;;;7.50;99.90;;;;;;4996284;28;20398;-62
2022/01/09 11:10:33;;;;;;;13.07;3.03;;;7.50;99.90;;;;;;5027946;28;20045;-62
2022/01/09 11:13:01;;;;;;;10.68;3.10;;;7.50;99.90;;;;;;5026271;28;20059;-62
2022/01/09 11:15:29;;;;;;;10.38;2.72;;;7.40;99.90;;;;;;5017560;28;20181;-62
2022/01/09 11:17:59;;;;;;;16.92;2.65;;;7.40;99.90;;;;;;5015786;28;20056;-62
2022/01/09 11:20:25;;;;;;;17.45;3.50;;;7.40;99.90;;;;;;5027719;28;20045;-63
2022/01/09 11:22:55;;;;;;;24.42;3.10;;;7.30;99.90;;;;;;5006628;28;20396;-62
2022/01/09 11:25:42;;;;;;;6.55;1.92;;;7.20;99.90;;;;;;5022564;28;20033;-62
2022/01/09 11:28:23;;;;;;;11.90;1.90;;;7.30;99.90;;;;;;5018738;28;20511;-62
2022/01/09 11:31:15;;;;;;;11.73;2.58;;;7.30;99.90;;;;;;5013837;28;20037;-62
2022/01/09 11:33:54;;;;;;;11.95;2.65;;;7.40;99.90;;;;;;5018182;28;20139;-62
2022/01/09 11:36:31;;;;;;;15.07;2.33;;;7.50;99.90;;;;;;5016862;28;20046;-62
2022/01/09 11:39:18;;;;;;;17.77;2.90;;;7.60;99.90;;;;;;5012604;28;20045;-63
2022/01/09 11:41:45;;;;;;;10.07;3.50;;;7.60;99.90;;;;;;4998290;28;20167;-63
2022/01/09 11:44:14;;;;;;;12.90;1.77;;;7.50;99.90;;;;;;5020012;28;20033;-63
2022/01/09 11:47:06;;;;;;;14.60;3.35;;;7.50;99.90;;;;;;5026375;28;20056;-62
2022/01/09 11:49:53;;;;;;;17.77;2.60;;;7.60;99.90;;;;;;5017663;28;20485;-63
2022/01/09 11:52:20;;;;;;;9.52;2.35;;;7.70;99.90;;;;;;5030866;28;20045;-62
2022/01/09 11:54:50;;;;;;;14.07;2.22;;;7.90;99.90;;;;;;5032223;28;20045;-62
2022/01/09 11:57:34;;;;;;;17.48;2.65;;;8.00;99.90;;;;;;5029848;28;20560;-62
2022/01/09 12:00:00;;;;;;;10.23;2.10;;;8.00;99.90;;;;;;5020909;28;20181;-62
2022/01/09 12:02:28;;;;;;;11.95;2.67;;;7.70;99.90;;;;;;5027216;28;20124;-62
2022/01/09 12:05:03;;;;;;;13.63;2.00;;;7.50;99.90;;;;;;5030336;28;20049;-62
2022/01/09 12:07:34;;;;;;;13.73;2.10;;;7.40;99.90;;;;;;5019874;28;20075;-62
2022/01/09 12:10:02;;;;;;;9.05;1.60;;;7.30;99.90;;;;;;5028044;28;20498;-62
2022/01/09 12:12:31;;;;;;;13.13;3.00;;;7.20;99.90;;;;;;5022963;28;20580;-62
2022/01/09 12:15:01;;;;;;;8.95;2.05;;;7.10;99.90;;;;;;5023907;28;20042;-62
2022/01/09 12:17:40;;;;;;;13.93;1.60;;;7.00;99.90;;;;;;5016907;28;20160;-62
2022/01/09 12:20:15;;;;;;;12.30;2.95;;;7.00;99.90;;;;;;5028887;28;20053;-63
2022/01/09 12:22:45;;;;;;;12.82;2.45;;;6.90;99.90;;;;;;5031984;28;20136;-62
2022/01/09 12:25:29;;;;;;;15.30;2.30;;;6.90;99.90;;;;;;5019189;28;20096;-63
2022/01/09 12:28:02;;;;;;;13.25;1.58;;;6.80;99.90;;;;;;5025899;28;20137;-62
2022/01/09 12:30:33;;;;;;;7.03;1.67;;;6.90;99.90;;;;;;5020902;28;20042;-62
2022/01/09 12:33:05;;;;;;;11.07;1.90;;;7.00;99.90;;;;;;5020697;28;20312;-62
2022/01/09 12:35:31;;;;;;;8.07;2.33;;;7.00;99.90;;;;;;5029292;28;20136;-62
2022/01/09 12:37:58;;;;;;;12.70;1.67;;;6.90;99.90;;;;;;5019176;28;20551;-62
2022/01/09 12:40:26;;;;;;;11.50;2.30;;;6.90;99.90;;;;;;5014397;28;20128;-62
2022/01/09 12:42:54;;;;;;;7.57;1.95;;;6.80;99.90;;;;;;5019214;28;20100;-62
2022/01/09 12:45:29;;;;;;;17.30;2.53;;;6.90;99.90;;;;;;5025919;28;20037;-62
2022/01/09 12:47:57;;;;;;;10.82;1.85;;;6.80;99.90;;;;;;5028909;28;20060;-62
2022/01/09 12:50:31;;;;;;;9.02;1.35;;;6.80;99.90;;;;;;5024904;28;20055;-63